W.w. Crum — WDB7252 — position and weather

sailwx.info

Track history (hours):
 
Tides and Currents Weather Stations Pressure Air Temp Water Temp Dewpoint Dewpoint Depression Visibility Wind Speed Wind Dir Waves Ship Positions

W.w. Crum

Owner: Magnolia Marine Transport Co, Vicksburg, MS. More information available from US FCC via Universal Licensing System and Coast Guard Vessel Documentation Center.

Last reported at 2015-Jan-07 11:24 UTC. Time now 2015-May-25 11:26 UTC.
Position N 30°11' W 091°08'.
Warning: this ship's position is months out of date.

Length 40 m; draft 3 m.

Type: Towing. MMSI: 366939330.

Date/timePositionNaut miles runAvg speedWind from/ knotsBaromVisibWave heightAir tempDewpointWater temp
2015-Jan-07 11:24N 30°11' W 091°08'7 3.9
2015-Jan-07 09:31N 30°09' W 090°60'2 2.0
2015-Jan-07 08:31N 30°07' W 091°00'2 1.8
2015-Jan-07 07:33N 30°07' W 090°58'11 3.7
2015-Jan-07 04:30N 29°60' W 090°48'25 1.3
2015-Jan-06 10:08N 29°56' W 090°20'0 0.0
2015-Jan-06 08:22N 29°56' W 090°20'0 0.0
2015-Jan-06 07:06N 29°56' W 090°20'36 0.8
2015-Jan-04 10:28N 29°32' W 090°51'5 6.0
2015-Jan-04 09:33N 29°34' W 090°57'5 4.9
2015-Jan-04 08:33N 29°37' W 091°01'5 4.8
2015-Jan-04 07:33N 29°38' W 091°06'3 2.9
2015-Jan-04 06:33N 29°41' W 091°09'2 2.1
2015-Jan-04 05:33N 29°41' W 091°11'3 3.5
2015-Jan-04 04:33N 29°39' W 091°15'4 4.2
2015-Jan-04 03:33N 29°38' W 091°19'6 5.5
2015-Jan-04 02:33N 29°39' W 091°25'5 4.7
2015-Jan-04 01:33N 29°42' W 091°30'5 5.1
2015-Jan-04 00:30N 29°45' W 091°35'  
Track history (hours):
 
Tides and Currents Weather Stations Pressure Air Temp Water Temp Dewpoint Dewpoint Depression Visibility Wind Speed Wind Dir Waves Ship Positions

W.w. Crum

Owner: Magnolia Marine Transport Co, Vicksburg, MS. More information available from US FCC via Universal Licensing System and Coast Guard Vessel Documentation Center.

Last reported at 2015-Jan-07 11:24 UTC. Time now 2015-May-25 11:26 UTC.
Position N 30°11' W 091°08'.
Warning: this ship's position is months out of date.

Length 40 m; draft 3 m.

Type: Towing. MMSI: 366939330.

Date/timePositionNaut miles runAvg speedWind from/ knotsBaromVisibWave heightAir tempDewpointWater temp
2015-Jan-07 11:24N 30°11' W 091°08'7 3.9
2015-Jan-07 09:31N 30°09' W 090°60'2 2.0
2015-Jan-07 08:31N 30°07' W 091°00'2 1.8
2015-Jan-07 07:33N 30°07' W 090°58'11 3.7
2015-Jan-07 04:30N 29°60' W 090°48'25 1.3
2015-Jan-06 10:08N 29°56' W 090°20'0 0.0
2015-Jan-06 08:22N 29°56' W 090°20'0 0.0
2015-Jan-06 07:06N 29°56' W 090°20'36 0.8
2015-Jan-04 10:28N 29°32' W 090°51'5 6.0
2015-Jan-04 09:33N 29°34' W 090°57'5 4.9
2015-Jan-04 08:33N 29°37' W 091°01'5 4.8
2015-Jan-04 07:33N 29°38' W 091°06'3 2.9
2015-Jan-04 06:33N 29°41' W 091°09'2 2.1
2015-Jan-04 05:33N 29°41' W 091°11'3 3.5
2015-Jan-04 04:33N 29°39' W 091°15'4 4.2
2015-Jan-04 03:33N 29°38' W 091°19'6 5.5
2015-Jan-04 02:33N 29°39' W 091°25'5 4.7
2015-Jan-04 01:33N 29°42' W 091°30'5 5.1
2015-Jan-04 00:30N 29°45' W 091°35'  

Dump ship's entire track history